Time;durP1;ratioP1;P1;durP2;ratioP2;P2;SDS_P1;SDS_P2;PMS_P1;PMS_P2;Temp;Humidity;BMP_temperature;BMP_pressure;BME280_temperature;BME280_humidity;BME280_pressure;Samples;Min_cycle;Max_cycle;Signal;HPM_P1;HPM_P2
2023/07/20 00:03:29;;;;;;;;;;;16.40;99.90;;;;;;12515161;28;19951;-42
2023/07/20 00:09:31;;;;;;;;;;;16.50;99.90;;;;;;12503822;28;20379;-42
2023/07/20 00:15:33;;;;;;;;;;;16.70;99.90;;;;;;12486086;28;19921;-42
2023/07/20 00:21:35;;;;;;;;;;;16.70;99.90;;;;;;12515938;28;19928;-42
2023/07/20 00:27:37;;;;;;;;;;;16.60;99.90;;;;;;12474223;28;20690;-43
2023/07/20 00:33:39;;;;;;;;;;;16.60;99.90;;;;;;12496995;28;20217;-42
2023/07/20 00:39:40;;;;;;;;;;;16.60;99.90;;;;;;12477376;28;20919;-42
2023/07/20 00:45:43;;;;;;;;;;;16.60;99.90;;;;;;12487416;28;20016;-42
2023/07/20 00:51:45;;;;;;;;;;;16.50;99.90;;;;;;12493778;28;19982;-42
2023/07/20 00:57:49;;;;;;;;;;;16.20;99.90;;;;;;12516131;28;19920;-43
2023/07/20 01:03:51;;;;;;;;;;;16.10;99.90;;;;;;12495920;28;19971;-42
2023/07/20 01:10:02;;;;;;;;;;;16.10;99.90;;;;;;12509477;28;19925;-42
2023/07/20 01:16:04;;;;;;;;;;;16.10;99.90;;;;;;12506446;28;19924;-42
2023/07/20 01:22:21;;;;;;;;;;;16.10;99.90;;;;;;12501203;28;19943;-42
2023/07/20 01:28:31;;;;;;;;;;;16.20;99.90;;;;;;12461805;28;20549;-42
2023/07/20 01:34:35;;;;;;;;;;;16.10;99.90;;;;;;12497941;28;19974;-42
2023/07/20 01:40:37;;;;;;;;;;;16.10;99.90;;;;;;12505609;28;20074;-42
2023/07/20 01:46:40;;;;;;;;;;;16.00;99.90;;;;;;12496247;28;20023;-43
2023/07/20 01:52:42;;;;;;;;;;;15.80;99.90;;;;;;12489887;28;20267;-42
2023/07/20 01:58:44;;;;;;;;;;;16.00;99.90;;;;;;12505317;28;20015;-42
2023/07/20 02:04:46;;;;;;;;;;;16.10;99.90;;;;;;12506413;28;20357;-42
2023/07/20 02:10:48;;;;;;;;;;;16.10;99.90;;;;;;12502229;28;19927;-42
2023/07/20 02:16:52;;;;;;;;;;;16.20;99.90;;;;;;12512900;28;20023;-42
2023/07/20 02:22:53;;;;;;;;;;;16.20;99.90;;;;;;12501117;28;19959;-42
2023/07/20 02:28:55;;;;;;;;;;;16.20;99.90;;;;;;12486005;28;19928;-42
2023/07/20 02:42:19;;;;;;;;;;;16.20;99.90;;;;;;12432879;28;19916;-42
2023/07/20 02:48:20;;;;;;;;;;;16.00;99.90;;;;;;12469541;28;19925;-42
2023/07/20 02:54:22;;;;;;;;;;;16.10;99.90;;;;;;12448654;28;20512;-42
2023/07/20 03:00:24;;;;;;;;;;;15.60;99.90;;;;;;12453549;28;19925;-42
2023/07/20 03:06:26;;;;;;;;;;;15.50;99.90;;;;;;12465951;28;19929;-42
2023/07/20 03:12:28;;;;;;;;;;;15.40;99.90;;;;;;12449558;28;19967;-42
2023/07/20 03:18:29;;;;;;;;;;;15.40;99.90;;;;;;12450206;28;20344;-42
2023/07/20 03:24:31;;;;;;;;;;;15.20;99.90;;;;;;12446519;28;20063;-42
2023/07/20 03:30:34;;;;;;;;;;;15.30;99.90;;;;;;12432761;28;19933;-42
2023/07/20 03:36:36;;;;;;;;;;;15.50;99.90;;;;;;12427160;28;20005;-42
2023/07/20 03:42:38;;;;;;;;;;;15.50;99.90;;;;;;12485279;28;20016;-42
2023/07/20 03:48:40;;;;;;;;;;;15.40;99.90;;;;;;12505368;28;19979;-42
2023/07/20 03:54:42;;;;;;;;;;;15.10;99.90;;;;;;12491335;28;20012;-42
2023/07/20 04:00:51;;;;;;;;;;;15.10;99.90;;;;;;12482897;28;19920;-42
2023/07/20 04:06:52;;;;;;;;;;;15.20;99.90;;;;;;12485155;28;19932;-42
2023/07/20 04:12:54;;;;;;;;;;;15.10;99.90;;;;;;12504931;28;19920;-41
2023/07/20 04:18:56;;;;;;;;;;;15.00;99.90;;;;;;12506577;28;19971;-42
2023/07/20 04:24:58;;;;;;;;;;;14.70;99.90;;;;;;12500994;28;20216;-42
2023/07/20 04:31:12;;;;;;;;;;;14.90;99.90;;;;;;12491638;28;19921;-42
2023/07/20 04:37:15;;;;;;;;;;;14.70;99.90;;;;;;12502435;28;19921;-42
2023/07/20 04:43:17;;;;;;;;;;;14.50;99.90;;;;;;12505466;28;19921;-42
2023/07/20 04:49:19;;;;;;;;;;;14.40;99.90;;;;;;12518144;28;20022;-42
2023/07/20 04:55:21;;;;;;;;;;;14.70;99.90;;;;;;12477013;28;19926;-42
2023/07/20 05:01:23;;;;;;;;;;;14.70;99.90;;;;;;12525210;28;19920;-42
2023/07/20 05:07:25;;;;;;;;;;;14.60;99.90;;;;;;12498915;28;19925;-42
2023/07/20 05:13:27;;;;;;;;;;;14.90;99.90;;;;;;12474154;28;19959;-42
2023/07/20 05:19:28;;;;;;;;;;;15.10;99.90;;;;;;12484374;28;20024;-42
2023/07/20 05:25:30;;;;;;;;;;;14.90;99.90;;;;;;12504947;28;20028;-42
2023/07/20 05:31:32;;;;;;;;;;;14.70;99.90;;;;;;12488120;28;19937;-42
2023/07/20 05:37:34;;;;;;;;;;;15.00;99.90;;;;;;12494645;28;20008;-42
2023/07/20 05:43:36;;;;;;;;;;;14.60;99.90;;;;;;12499788;28;20037;-42
2023/07/20 05:49:38;;;;;;;;;;;14.80;99.90;;;;;;12509421;28;19920;-42
2023/07/20 05:55:40;;;;;;;;;;;14.80;99.90;;;;;;12485549;28;20027;-42
2023/07/20 06:01:43;;;;;;;;;;;14.80;99.90;;;;;;12504703;28;19925;-41
2023/07/20 06:07:44;;;;;;;;;;;14.90;99.90;;;;;;12506006;28;19947;-42
2023/07/20 06:13:46;;;;;;;;;;;15.20;99.90;;;;;;12495171;28;20591;-42
2023/07/20 06:19:48;;;;;;;;;;;15.10;99.90;;;;;;12475590;28;19966;-42
2023/07/20 06:25:50;;;;;;;;;;;14.90;99.90;;;;;;12492666;28;19921;-42
2023/07/20 06:31:52;;;;;;;;;;;15.20;99.90;;;;;;12500600;28;19982;-42
2023/07/20 06:37:53;;;;;;;;;;;15.70;99.90;;;;;;12487392;28;19928;-42
2023/07/20 06:43:58;;;;;;;;;;;15.60;99.90;;;;;;12496397;28;19936;-42
2023/07/20 06:50:00;;;;;;;;;;;15.50;99.90;;;;;;12494033;28;19943;-42
2023/07/20 06:56:02;;;;;;;;;;;16.00;99.90;;;;;;12478730;28;20373;-42
2023/07/20 07:02:04;;;;;;;;;;;15.80;99.90;;;;;;12497735;28;19921;-42
2023/07/20 07:08:06;;;;;;;;;;;15.70;99.90;;;;;;12500132;28;20069;-42
2023/07/20 07:14:08;;;;;;;;;;;15.90;99.90;;;;;;12481824;28;19929;-42
2023/07/20 07:20:09;;;;;;;;;;;16.20;99.90;;;;;;12484804;28;19959;-42
2023/07/20 07:26:21;;;;;;;;;;;16.40;99.90;;;;;;12486507;28;19920;-42
2023/07/20 07:32:24;;;;;;;;;;;16.20;99.90;;;;;;12492062;28;19924;-42
2023/07/20 07:38:26;;;;;;;;;;;16.40;99.90;;;;;;12486512;28;19948;-42
2023/07/20 07:44:32;;;;;;;;;;;16.60;99.90;;;;;;12509786;28;19925;-42
2023/07/20 07:50:33;;;;;;;;;;;16.80;99.90;;;;;;12497866;28;20083;-42
2023/07/20 07:56:35;;;;;;;;;;;17.00;99.90;;;;;;12495533;28;20031;-42
2023/07/20 08:02:37;;;;;;;;;;;16.80;99.90;;;;;;12512690;28;19925;-42
2023/07/20 08:08:39;;;;;;;;;;;16.40;99.90;;;;;;12498414;28;19952;-42
2023/07/20 08:14:41;;;;;;;;;;;16.30;99.90;;;;;;12501072;28;19921;-43
2023/07/20 08:20:43;;;;;;;;;;;16.50;99.90;;;;;;12486041;28;19966;-43
2023/07/20 08:26:45;;;;;;;;;;;16.40;99.90;;;;;;12491639;28;19966;-42
2023/07/20 08:32:47;;;;;;;;;;;16.60;99.90;;;;;;12479158;28;20371;-43
2023/07/20 08:38:49;;;;;;;;;;;17.00;99.90;;;;;;12510398;28;19921;-43
2023/07/20 08:44:52;;;;;;;;;;;17.20;99.90;;;;;;12481186;28;19960;-43
2023/07/20 08:50:55;;;;;;;;;;;17.10;99.90;;;;;;12495243;28;19921;-43
2023/07/20 08:56:57;;;;;;;;;;;17.20;99.90;;;;;;12488301;28;20024;-43
2023/07/20 09:03:02;;;;;;;;;;;17.20;99.90;;;;;;12520669;28;20273;-41
2023/07/20 09:09:05;;;;;;;;;;;17.10;99.90;;;;;;12495135;28;19948;-41
2023/07/20 09:15:07;;;;;;;;;;;17.40;99.90;;;;;;12504521;28;19920;-43
2023/07/20 09:21:09;;;;;;;;;;;18.00;99.90;;;;;;12501538;28;19921;-43
2023/07/20 09:27:11;;;;;;;;;;;18.20;99.90;;;;;;12475220;28;19928;-43
2023/07/20 09:33:19;;;;;;;;;;;18.10;99.90;;;;;;12495001;28;20381;-43
2023/07/20 09:39:24;;;;;;;;;;;18.50;99.90;;;;;;12473769;28;20337;-43
2023/07/20 09:45:38;;;;;;;;;;;18.20;99.90;;;;;;12492248;28;20097;-43
2023/07/20 09:52:00;;;;;;;;;;;18.50;99.90;;;;;;12510443;28;19971;-43
2023/07/20 09:58:02;;;;;;;;;;;18.90;99.90;;;;;;12499362;28;20455;-43
2023/07/20 10:04:07;;;;;;;;;;;19.20;99.90;;;;;;12503323;28;20023;-43
2023/07/20 10:10:10;;;;;;;;;;;19.70;99.90;;;;;;12496523;28;19921;-44
2023/07/20 10:16:29;;;;;;;;;;;19.60;99.90;;;;;;12487712;28;19946;-43
2023/07/20 10:22:34;;;;;;;;;;;18.90;99.90;;;;;;12483540;28;19925;-44
2023/07/20 10:28:43;;;;;;;;;;;19.40;99.90;;;;;;12490304;28;19967;-43
2023/07/20 10:34:50;;;;;;;;;;;19.60;99.90;;;;;;12502984;28;20516;-43
2023/07/20 10:40:55;;;;;;;;;;;18.90;99.90;;;;;;12472268;28;19982;-43
2023/07/20 10:47:01;;;;;;;;;;;19.40;99.90;;;;;;12484308;28;19960;-43
2023/07/20 10:53:09;;;;;;;;;;;19.60;99.90;;;;;;12481913;28;19921;-43
2023/07/20 10:59:19;;;;;;;;;;;20.00;99.90;;;;;;12509830;28;19928;-43
2023/07/20 11:05:40;;;;;;;;;;;20.20;99.90;;;;;;12492407;28;19921;-43
2023/07/20 11:11:44;;;;;;;;;;;20.60;99.90;;;;;;12510393;28;19931;-43
2023/07/20 11:17:45;;;;;;;;;;;20.00;99.90;;;;;;12490146;28;20277;-44
2023/07/20 11:23:48;;;;;;;;;;;20.60;99.90;;;;;;12491599;28;19921;-43
2023/07/20 11:29:50;;;;;;;;;;;20.90;99.90;;;;;;12471711;28;20020;-44
2023/07/20 11:35:52;;;;;;;;;;;21.60;99.90;;;;;;12477234;28;19968;-43
2023/07/20 11:41:55;;;;;;;;;;;19.80;99.90;;;;;;12483843;28;20293;-44
2023/07/20 11:47:58;;;;;;;;;;;19.10;99.90;;;;;;12498749;28;19944;-44
2023/07/20 11:54:01;;;;;;;;;;;19.80;99.90;;;;;;12485082;28;20325;-43
2023/07/20 12:00:08;;;;;;;;;;;20.70;99.90;;;;;;12507650;28;19924;-43
2023/07/20 12:06:11;;;;;;;;;;;20.40;99.90;;;;;;12497684;28;20377;-44
2023/07/20 12:12:13;;;;;;;;;;;20.40;99.90;;;;;;12499225;28;19925;-43
2023/07/20 12:18:15;;;;;;;;;;;20.40;99.90;;;;;;12492615;28;19971;-44
2023/07/20 12:24:17;;;;;;;;;;;20.30;99.90;;;;;;12481723;28;19944;-43
2023/07/20 12:30:19;;;;;;;;;;;19.60;99.90;;;;;;12511584;28;19928;-44
2023/07/20 12:36:21;;;;;;;;;;;20.10;99.90;;;;;;12533328;28;20019;-43
2023/07/20 12:42:24;;;;;;;;;;;20.50;99.90;;;;;;12504380;28;20280;-43
2023/07/20 12:48:25;;;;;;;;;;;20.30;99.90;;;;;;12511970;28;19925;-44
2023/07/20 12:54:27;;;;;;;;;;;20.00;99.90;;;;;;12497380;28;20063;-44
2023/07/20 13:00:32;;;;;;;;;;;20.40;99.90;;;;;;12519045;28;20078;-43
2023/07/20 13:06:34;;;;;;;;;;;20.50;99.90;;;;;;12524111;28;20282;-44
2023/07/20 13:12:38;;;;;;;;;;;21.10;99.90;;;;;;12504640;28;19931;-42
2023/07/20 13:18:40;;;;;;;;;;;21.10;99.90;;;;;;12511061;28;19932;-43
2023/07/20 13:24:44;;;;;;;;;;;20.70;99.90;;;;;;12524716;28;20027;-44
2023/07/20 13:30:46;;;;;;;;;;;20.00;99.90;;;;;;12522776;28;20278;-43
2023/07/20 13:36:47;;;;;;;;;;;20.10;99.90;;;;;;12523011;28;20038;-43
2023/07/20 13:42:50;;;;;;;;;;;20.30;99.90;;;;;;12515031;28;19920;-43
2023/07/20 13:48:52;;;;;;;;;;;20.60;99.90;;;;;;12518286;28;19928;-44
2023/07/20 13:54:56;;;;;;;;;;;21.00;99.90;;;;;;12511331;28;19921;-42
2023/07/20 14:00:58;;;;;;;;;;;21.50;99.90;;;;;;12529802;28;19920;-43
2023/07/20 14:07:00;;;;;;;;;;;21.70;99.90;;;;;;12494433;28;20385;-42
2023/07/20 14:13:02;;;;;;;;;;;21.60;99.90;;;;;;12509289;28;20015;-44
2023/07/20 14:19:04;;;;;;;;;;;21.20;99.90;;;;;;12481044;28;19932;-43
2023/07/20 14:25:06;;;;;;;;;;;20.60;99.90;;;;;;12487326;28;19970;-42
2023/07/20 14:31:10;;;;;;;;;;;20.00;99.90;;;;;;12504832;28;19959;-43
2023/07/20 14:37:12;;;;;;;;;;;19.60;99.90;;;;;;12506346;28;19921;-43
2023/07/20 14:43:15;;;;;;;;;;;19.30;99.90;;;;;;12500700;28;19995;-43
2023/07/20 14:49:18;;;;;;;;;;;19.40;99.90;;;;;;12522414;28;20004;-43
2023/07/20 14:55:20;;;;;;;;;;;19.40;99.90;;;;;;12489893;28;20398;-43
2023/07/20 15:01:22;;;;;;;;;;;19.70;99.90;;;;;;12524904;28;19928;-43
2023/07/20 15:07:24;;;;;;;;;;;20.00;99.90;;;;;;12498841;28;20445;-43
2023/07/20 15:13:26;;;;;;;;;;;20.20;99.90;;;;;;12487016;28;19921;-43
2023/07/20 15:19:28;;;;;;;;;;;20.20;99.90;;;;;;12514129;28;19925;-43
2023/07/20 15:25:30;;;;;;;;;;;20.20;99.90;;;;;;12497398;28;19928;-43
2023/07/20 15:31:32;;;;;;;;;;;20.50;99.90;;;;;;12502354;28;19925;-44
2023/07/20 15:37:37;;;;;;;;;;;20.40;99.90;;;;;;12505245;28;20289;-43
2023/07/20 15:43:39;;;;;;;;;;;20.10;99.90;;;;;;12491463;28;19960;-44
2023/07/20 15:49:41;;;;;;;;;;;20.10;99.90;;;;;;12517117;28;19925;-43
2023/07/20 15:55:43;;;;;;;;;;;20.00;99.90;;;;;;12508044;28;19966;-43
2023/07/20 16:01:45;;;;;;;;;;;19.70;99.90;;;;;;12500887;28;19948;-43
2023/07/20 16:07:47;;;;;;;;;;;19.70;99.90;;;;;;12523058;28;19921;-43
2023/07/20 16:13:49;;;;;;;;;;;19.90;99.90;;;;;;12528812;28;19925;-43
2023/07/20 16:19:52;;;;;;;;;;;20.50;99.90;;;;;;12492811;28;19928;-43
2023/07/20 16:25:53;;;;;;;;;;;20.80;99.90;;;;;;12502440;28;20012;-43
2023/07/20 16:31:55;;;;;;;;;;;20.80;99.90;;;;;;12512666;28;20399;-43
2023/07/20 16:38:01;;;;;;;;;;;20.70;99.90;;;;;;12519561;28;19964;-43
2023/07/20 16:44:06;;;;;;;;;;;21.00;99.90;;;;;;12502886;28;19920;-43
2023/07/20 16:50:08;;;;;;;;;;;21.20;99.90;;;;;;12527350;28;19963;-43
2023/07/20 16:56:11;;;;;;;;;;;21.40;99.90;;;;;;12506040;28;19924;-44
2023/07/20 17:02:13;;;;;;;;;;;21.40;99.90;;;;;;12510418;28;19921;-43
2023/07/20 17:08:15;;;;;;;;;;;21.60;99.90;;;;;;12502223;28;19927;-43
2023/07/20 17:14:17;;;;;;;;;;;21.10;99.90;;;;;;12508461;28;19974;-44
2023/07/20 17:20:20;;;;;;;;;;;21.40;99.90;;;;;;12489912;28;19974;-44
2023/07/20 17:26:25;;;;;;;;;;;21.20;99.90;;;;;;12508752;28;20513;-44
2023/07/20 17:32:30;;;;;;;;;;;21.50;99.90;;;;;;12505894;28;20007;-43
2023/07/20 17:38:31;;;;;;;;;;;21.70;99.90;;;;;;12519851;28;19921;-44
2023/07/20 17:44:36;;;;;;;;;;;21.30;99.90;;;;;;12504775;28;19921;-43
2023/07/20 17:50:38;;;;;;;;;;;21.40;99.90;;;;;;12518126;28;19931;-44
2023/07/20 17:56:40;;;;;;;;;;;21.60;99.90;;;;;;12496709;28;19936;-44
2023/07/20 18:02:43;;;;;;;;;;;22.10;99.90;;;;;;12502612;28;19921;-43
2023/07/20 18:08:45;;;;;;;;;;;22.30;99.90;;;;;;12509671;28;19974;-44
2023/07/20 18:14:46;;;;;;;;;;;22.30;99.90;;;;;;12520261;28;19924;-44
2023/07/20 18:20:48;;;;;;;;;;;22.00;99.90;;;;;;12488903;28;20033;-43
2023/07/20 18:26:50;;;;;;;;;;;21.50;99.90;;;;;;12508968;28;20015;-43
2023/07/20 18:32:52;;;;;;;;;;;21.00;99.90;;;;;;12510171;28;20313;-43
2023/07/20 18:38:53;;;;;;;;;;;20.70;99.90;;;;;;12509063;28;19982;-43
2023/07/20 18:44:55;;;;;;;;;;;20.40;99.90;;;;;;12494771;28;19943;-43
2023/07/20 18:50:58;;;;;;;;;;;19.90;99.90;;;;;;12503539;28;19921;-43
2023/07/20 18:57:00;;;;;;;;;;;19.70;99.90;;;;;;12511456;28;19921;-44
2023/07/20 19:03:02;;;;;;;;;;;19.60;99.90;;;;;;12528869;28;20386;-43
2023/07/20 19:09:04;;;;;;;;;;;19.40;99.90;;;;;;12496284;28;19964;-43
2023/07/20 19:15:06;;;;;;;;;;;19.20;99.90;;;;;;12505556;28;19921;-44
2023/07/20 19:21:08;;;;;;;;;;;18.90;99.90;;;;;;12510701;28;20270;-43
2023/07/20 19:27:10;;;;;;;;;;;18.60;99.90;;;;;;12514962;28;19920;-43
2023/07/20 19:33:12;;;;;;;;;;;18.60;99.90;;;;;;12508384;28;20121;-44
2023/07/20 19:39:14;;;;;;;;;;;18.30;99.90;;;;;;12513417;28;19924;-44
2023/07/20 19:45:15;;;;;;;;;;;18.20;99.90;;;;;;12493362;28;20125;-43
2023/07/20 19:51:17;;;;;;;;;;;17.80;99.90;;;;;;12506930;28;19983;-43
2023/07/20 19:57:19;;;;;;;;;;;17.70;99.90;;;;;;12485276;28;19921;-43
2023/07/20 20:03:24;;;;;;;;;;;17.40;99.90;;;;;;12507665;28;19925;-44
2023/07/20 20:09:29;;;;;;;;;;;17.00;99.90;;;;;;12509074;28;20082;-43
2023/07/20 20:15:30;;;;;;;;;;;17.00;99.90;;;;;;12492990;28;20385;-43
2023/07/20 20:21:35;;;;;;;;;;;17.00;99.90;;;;;;12484542;28;19925;-43
2023/07/20 20:27:39;;;;;;;;;;;17.10;99.90;;;;;;12500714;28;19982;-43
2023/07/20 20:33:41;;;;;;;;;;;17.10;99.90;;;;;;12513205;28;19927;-43
2023/07/20 20:39:43;;;;;;;;;;;17.20;99.90;;;;;;12512123;28;19925;-43
2023/07/20 20:45:45;;;;;;;;;;;16.90;99.90;;;;;;12495649;28;20578;-43
2023/07/20 20:51:46;;;;;;;;;;;16.90;99.90;;;;;;12500574;28;20061;-43
2023/07/20 20:57:51;;;;;;;;;;;16.50;99.90;;;;;;12505221;28;19979;-43
2023/07/20 21:03:53;;;;;;;;;;;16.50;99.90;;;;;;12510997;28;19921;-43
2023/07/20 21:09:55;;;;;;;;;;;16.50;99.90;;;;;;12520527;28;19929;-43
2023/07/20 21:15:57;;;;;;;;;;;16.50;99.90;;;;;;12521694;28;19960;-43
2023/07/20 21:21:59;;;;;;;;;;;16.50;99.90;;;;;;12515291;28;19921;-43
2023/07/20 21:28:02;;;;;;;;;;;16.40;99.90;;;;;;12517831;28;19972;-43
2023/07/20 21:34:03;;;;;;;;;;;16.60;99.90;;;;;;12507436;28;19921;-43
2023/07/20 21:40:07;;;;;;;;;;;16.50;99.90;;;;;;12503504;28;19976;-43
2023/07/20 21:46:09;;;;;;;;;;;16.60;99.90;;;;;;12482847;28;20007;-41
2023/07/20 21:52:11;;;;;;;;;;;16.50;99.90;;;;;;12510541;28;20396;-41
2023/07/20 21:58:13;;;;;;;;;;;16.50;99.90;;;;;;12525224;28;19932;-40
2023/07/20 22:04:16;;;;;;;;;;;16.60;99.90;;;;;;12491840;28;19925;-41
2023/07/20 22:10:18;;;;;;;;;;;16.60;99.90;;;;;;12495673;28;19921;-42
2023/07/20 22:16:20;;;;;;;;;;;16.50;99.90;;;;;;12515919;28;19982;-41
2023/07/20 22:22:21;;;;;;;;;;;16.50;99.90;;;;;;12495141;28;19921;-41
2023/07/20 22:28:23;;;;;;;;;;;16.60;99.90;;;;;;12498218;28;20487;-43
2023/07/20 22:34:32;;;;;;;;;;;16.70;99.90;;;;;;12500236;28;21198;-41
2023/07/20 22:40:34;;;;;;;;;;;16.70;99.90;;;;;;12507034;28;19921;-42
2023/07/20 22:46:36;;;;;;;;;;;16.70;99.90;;;;;;12494178;28;20015;-43
2023/07/20 22:52:38;;;;;;;;;;;16.70;99.90;;;;;;12486304;28;19982;-42
2023/07/20 22:58:39;;;;;;;;;;;16.80;99.90;;;;;;12509075;28;19991;-41
2023/07/20 23:04:41;;;;;;;;;;;17.00;99.90;;;;;;12485743;28;20040;-41
2023/07/20 23:10:43;;;;;;;;;;;17.00;99.90;;;;;;12499857;28;19925;-41
2023/07/20 23:16:45;;;;;;;;;;;17.00;99.90;;;;;;12512903;28;19981;-41
2023/07/20 23:22:48;;;;;;;;;;;16.90;99.90;;;;;;12514245;28;19925;-41
2023/07/20 23:28:52;;;;;;;;;;;17.00;99.90;;;;;;12504893;28;19921;-42
2023/07/20 23:34:54;;;;;;;;;;;16.90;99.90;;;;;;12498288;28;19968;-41
2023/07/20 23:40:56;;;;;;;;;;;16.90;99.90;;;;;;12509330;28;19924;-42
2023/07/20 23:46:57;;;;;;;;;;;16.90;99.90;;;;;;12492109;28;19958;-42
2023/07/20 23:52:59;;;;;;;;;;;16.90;99.90;;;;;;12511253;28;19986;-42
2023/07/20 23:59:01;;;;;;;;;;;16.90;99.90;;;;;;12523535;28;19927;-42
